WetterOnline ( http://www.wetteronline.de )

Wetter aktuell Oschersleben

Aktuelles Wetter: Ummendorf (163m)

6-stündlich | Neueste Meldungen
Ortszeit Temperatur Wetter
Mo, 23.04. 14:00 17.8° C leicht bewölkt
Mo, 23.04. 8:00 13.5° C wolkenlos
Mo, 23.04. 2:00 14.7° C leicht bewölkt
So, 22.04. 20:00 20.1° C leicht bewölkt
So, 22.04. 14:00 20.3° C wolkig
So, 22.04. 8:00 11.4° C wolkenlos
So, 22.04. 2:00 10.9° C wolkenlos
Sa, 21.04. 20:00 17.7° C wolkenlos
Ortszeit Temperatur Wetter
Mo, 23.04. 15:00 17.0° C leicht bewölkt
Mo, 23.04. 14:50 17.0° C leicht bewölkt
Mo, 23.04. 14:40 18.0° C fast wolkenlos
Mo, 23.04. 14:30 17.3° C wolkenlos
Mo, 23.04. 14:20 17.3° C wolkenlos
Mo, 23.04. 14:10 17.2° C fast wolkenlos
Mo, 23.04. 14:00 17.8° C leicht bewölkt
Mo, 23.04. 13:30 17.1° C bewölkt
Mo, 23.04. 13:00 17.3° C bewölkt
Mo, 23.04. 12:30 16.7° C wolkig
Mo, 23.04. 12:00 16.2° C leicht bewölkt
Ortszeit Relative Feuchte Sichtweite
Mo, 23.04. 14:00 68% 9 km
Mo, 23.04. 8:00 98% 16 km
Mo, 23.04. 2:00 84% 50 km
So, 22.04. 20:00 67% 12 km
So, 22.04. 14:00 60% 14 km
So, 22.04. 8:00 76% 30 km
So, 22.04. 2:00 68% 55 km
Sa, 21.04. 20:00 57% 45 km
Ortszeit Relative Feuchte Sichtweite
Mo, 23.04. 15:00 65% 23 km
Mo, 23.04. 14:50 65% -
Mo, 23.04. 14:40 66% -
Mo, 23.04. 14:30 68% 11 km
Mo, 23.04. 14:20 68% -
Mo, 23.04. 14:10 67% -
Mo, 23.04. 14:00 68% 9 km
Mo, 23.04. 13:30 79% 11 km
Mo, 23.04. 13:00 78% 9 km
Mo, 23.04. 12:30 80% 9 km
Mo, 23.04. 12:00 82% 12 km
Ortszeit Niederschlagsmenge Niederschlagsart
Mo, 23.04. 14:00 0.8 l/m2 in 6 Std. Regen
Mo, 23.04. 8:00 7 l/m2 in 12 Std. Regen
Mo, 23.04. 2:00 5 l/m2 in 6 Std. Regenschauer
So, 22.04. 20:00 0.0 l/m2 in 12 Std. -
So, 22.04. 14:00 0.0 l/m2 in 6 Std. -
So, 22.04. 8:00 0.0 l/m2 in 12 Std. -
So, 22.04. 2:00 0.0 l/m2 in 6 Std. -
Sa, 21.04. 20:00 0.0 l/m2 in 12 Std. -
Ortszeit Niederschlagsmenge Niederschlagsart
Mo, 23.04. 15:00 0.0 l/m2 in 1 Std. -
Mo, 23.04. 14:50 keine Meldung -
Mo, 23.04. 14:40 keine Meldung -
Mo, 23.04. 14:30 0.0 l/m2 in 1 Std. -
Mo, 23.04. 14:20 keine Meldung -
Mo, 23.04. 14:10 keine Meldung -
Mo, 23.04. 14:00 0.0 l/m2 in 1 Std. Regen
Mo, 23.04. 13:30 0.0 l/m2 in 1 Std. -
Mo, 23.04. 13:00 0.0 l/m2 in 1 Std. -
Mo, 23.04. 12:30 0.0 l/m2 in 1 Std. -
Mo, 23.04. 12:00 0.1 l/m2 in 1 Std. Regen
Ortszeit Stärke Spitze Richtung
km/h Bft. km/h Grad Sektor
Mo, 23.04. 14:00 31 5 48 260° W
Mo, 23.04. 8:00 7 2 50 210° SW
Mo, 23.04. 2:00 14 3 47 220° SW
So, 22.04. 20:00 14 3 29 140° SO
So, 22.04. 14:00 13 3 20 100° O
So, 22.04. 8:00 0 0 14 - -
So, 22.04. 2:00 11 2 14 350° N
Sa, 21.04. 20:00 7 2 22 20° N
Ortszeit Stärke Spitze Richtung
km/h Bft. km/h Grad Sektor
Mo, 23.04. 15:00 29 5 47 280° W
Mo, 23.04. 14:50 29 5 - 280° W
Mo, 23.04. 14:40 28 4 - 270° W
Mo, 23.04. 14:30 33 5 48 270° W
Mo, 23.04. 14:20 33 5 - 270° W
Mo, 23.04. 14:10 35 5 - 280° W
Mo, 23.04. 14:00 31 5 48 260° W
Mo, 23.04. 13:30 22 4 47 280° W
Mo, 23.04. 13:00 29 5 47 260° W
Mo, 23.04. 12:30 32 5 47 260° W
Mo, 23.04. 12:00 32 5 43 260° W
Ortszeit Untergrenze Bedeckung Gattung
total tief tief mittel hoch
Mo, 23.04. 14:00 1080 m 4/8 3/8 - - -
Mo, 23.04. 8:00 3900 m 0/8 0/8 - - -
Mo, 23.04. 2:00 3600 m 3/8 3/8 - - -
So, 22.04. 20:00 3300 m 5/8 1/8 - - -
So, 22.04. 14:00 2100 m 6/8 3/8 - - -
So, 22.04. 8:00 - 0/8 0/8 - - -
So, 22.04. 2:00 - 0/8 0/8 - - -
Sa, 21.04. 20:00 - 0/8 0/8 - - -
Ortszeit Bedeckungsgrad in Achtel und Wolkenuntergrenze
Mo, 23.04. 15:00 4(1290m) 4(1500m)
Mo, 23.04. 14:50 4(1290m) 4(1500m)
Mo, 23.04. 14:40 1(1290m)
Mo, 23.04. 14:30 keine Wolken
Mo, 23.04. 14:20 keine Wolken
Mo, 23.04. 14:10 1(1080m)
Mo, 23.04. 14:00 2(1080m) 3(1290m)
Mo, 23.04. 13:30 6(750m) 7(930m) 7(1110m)
Mo, 23.04. 13:00 4(660m) 6(840m) 7(1500m)
Mo, 23.04. 12:30 3(630m) 4(1500m) 5(6300m)
Mo, 23.04. 12:00 3(5400m) 4(6000m)
Ortszeit Luftdruck NN (hPa) Tendenz (hPa in 3 Std.)
Mo, 23.04. 14:00 1013 + 0,7
Mo, 23.04. 8:00 1011 + 0,5
Mo, 23.04. 2:00 1011 - 1,0
So, 22.04. 20:00 1011 - 1,2
So, 22.04. 14:00 1014 - 2,0
So, 22.04. 8:00 1018 - 0,9
So, 22.04. 2:00 1020 - 0,4
Sa, 21.04. 20:00 1019 - 0,7
Ortszeit Luftdruck NN (hPa) Tendenz (hPa in 3 Std.)
Mo, 23.04. 15:00 1013 + 0,5
Mo, 23.04. 14:50 1013 keine Meldung
Mo, 23.04. 14:40 1013 keine Meldung
Mo, 23.04. 14:30 1013 + 0,6
Mo, 23.04. 14:20 1013 keine Meldung
Mo, 23.04. 14:10 1013 keine Meldung
Mo, 23.04. 14:00 1013 + 0,7
Mo, 23.04. 13:30 1013 + 0,8
Mo, 23.04. 13:00 1013 + 0,8
Mo, 23.04. 12:30 1013 + 0,7
Mo, 23.04. 12:00 1013 + 0,6
Ortszeit Schneehöhe (cm)
Mo, 23.04. 14:00 0
Mo, 23.04. 8:00 0
Mo, 23.04. 2:00 0
So, 22.04. 20:00 0
So, 22.04. 14:00 0
So, 22.04. 8:00 0
So, 22.04. 2:00 0
Sa, 21.04. 20:00 0
Ortszeit Schneehöhe (cm)
Mo, 23.04. 15:00 0
Mo, 23.04. 14:50 0
Mo, 23.04. 14:40 0
Mo, 23.04. 14:30 0
Mo, 23.04. 14:20 0
Mo, 23.04. 14:10 0
Mo, 23.04. 14:00 0
Mo, 23.04. 13:30 0
Mo, 23.04. 13:00 0
Mo, 23.04. 12:30 0
Mo, 23.04. 12:00 0
Link zu dieser Seite / Seite empfehlen

Das Wetter in ...